sensor_id;sensor_type;location;lat;lon;timestamp;pressure;altitude;pressure_sealevel;temperature
75822;BMP180;64454;51.984;9.838;2023-04-16T00:00:12;100236.00;;;10.30
75822;BMP180;64454;51.984;9.838;2023-04-16T00:02:39;100241.00;;;10.30
75822;BMP180;64454;51.984;9.838;2023-04-16T00:05:06;100249.00;;;10.10
75822;BMP180;64454;51.984;9.838;2023-04-16T00:07:33;100247.00;;;10.10
75822;BMP180;64454;51.984;9.838;2023-04-16T00:10:00;100242.00;;;10.10
75822;BMP180;64454;51.984;9.838;2023-04-16T00:12:27;100245.00;;;10.20
75822;BMP180;64454;51.984;9.838;2023-04-16T00:14:54;100249.00;;;10.20
75822;BMP180;64454;51.984;9.838;2023-04-16T00:17:22;100244.00;;;10.10
75822;BMP180;64454;51.984;9.838;2023-04-16T00:19:49;100244.00;;;10.00
75822;BMP180;64454;51.984;9.838;2023-04-16T00:22:15;100247.00;;;10.10
75822;BMP180;64454;51.984;9.838;2023-04-16T00:24:42;100248.00;;;10.10
75822;BMP180;64454;51.984;9.838;2023-04-16T00:27:09;100240.00;;;10.10
75822;BMP180;64454;51.984;9.838;2023-04-16T00:29:36;100247.00;;;10.10
75822;BMP180;64454;51.984;9.838;2023-04-16T00:32:03;100244.00;;;10.00
75822;BMP180;64454;51.984;9.838;2023-04-16T00:34:32;100244.00;;;10.20
75822;BMP180;64454;51.984;9.838;2023-04-16T00:36:59;100247.00;;;9.90
75822;BMP180;64454;51.984;9.838;2023-04-16T00:39:25;100252.00;;;9.90
75822;BMP180;64454;51.984;9.838;2023-04-16T00:41:52;100252.00;;;9.90
75822;BMP180;64454;51.984;9.838;2023-04-16T00:44:20;100255.00;;;9.80
75822;BMP180;64454;51.984;9.838;2023-04-16T00:46:47;100254.00;;;9.90
75822;BMP180;64454;51.984;9.838;2023-04-16T00:49:16;100255.00;;;10.20
75822;BMP180;64454;51.984;9.838;2023-04-16T00:51:45;100260.00;;;10.00
75822;BMP180;64454;51.984;9.838;2023-04-16T00:54:12;100258.00;;;10.00
75822;BMP180;64454;51.984;9.838;2023-04-16T00:56:40;100251.00;;;9.90
75822;BMP180;64454;51.984;9.838;2023-04-16T00:59:07;100258.00;;;9.80
75822;BMP180;64454;51.984;9.838;2023-04-16T01:01:34;100255.00;;;10.10
75822;BMP180;64454;51.984;9.838;2023-04-16T01:04:01;100257.00;;;10.10
75822;BMP180;64454;51.984;9.838;2023-04-16T01:06:28;100256.00;;;9.80
75822;BMP180;64454;51.984;9.838;2023-04-16T01:08:56;100264.00;;;9.90
75822;BMP180;64454;51.984;9.838;2023-04-16T01:11:23;100272.00;;;9.80
75822;BMP180;64454;51.984;9.838;2023-04-16T01:13:50;100275.00;;;9.80
75822;BMP180;64454;51.984;9.838;2023-04-16T01:16:17;100269.00;;;9.80
75822;BMP180;64454;51.984;9.838;2023-04-16T01:18:44;100273.00;;;10.10
75822;BMP180;64454;51.984;9.838;2023-04-16T01:21:13;100274.00;;;10.10
75822;BMP180;64454;51.984;9.838;2023-04-16T01:23:39;100274.00;;;9.90
75822;BMP180;64454;51.984;9.838;2023-04-16T01:26:06;100278.00;;;9.80
75822;BMP180;64454;51.984;9.838;2023-04-16T01:28:33;100286.00;;;9.80
75822;BMP180;64454;51.984;9.838;2023-04-16T01:31:00;100286.00;;;9.90
75822;BMP180;64454;51.984;9.838;2023-04-16T01:33:27;100288.00;;;9.70
75822;BMP180;64454;51.984;9.838;2023-04-16T01:35:54;100292.00;;;9.80
75822;BMP180;64454;51.984;9.838;2023-04-16T01:38:22;100291.00;;;9.90
75822;BMP180;64454;51.984;9.838;2023-04-16T01:40:54;100286.00;;;9.90
75822;BMP180;64454;51.984;9.838;2023-04-16T01:43:22;100287.00;;;9.80
75822;BMP180;64454;51.984;9.838;2023-04-16T01:45:48;100286.00;;;9.90
75822;BMP180;64454;51.984;9.838;2023-04-16T01:48:15;100284.00;;;9.80
75822;BMP180;64454;51.984;9.838;2023-04-16T01:50:42;100284.00;;;9.80
75822;BMP180;64454;51.984;9.838;2023-04-16T01:53:09;100281.00;;;9.80
75822;BMP180;64454;51.984;9.838;2023-04-16T01:55:37;100283.00;;;9.80
75822;BMP180;64454;51.984;9.838;2023-04-16T01:58:04;100277.00;;;9.80
75822;BMP180;64454;51.984;9.838;2023-04-16T02:00:35;100284.00;;;9.90
75822;BMP180;64454;51.984;9.838;2023-04-16T02:03:02;100286.00;;;9.70
75822;BMP180;64454;51.984;9.838;2023-04-16T02:05:29;100281.00;;;9.90
75822;BMP180;64454;51.984;9.838;2023-04-16T02:07:56;100287.00;;;10.10
75822;BMP180;64454;51.984;9.838;2023-04-16T02:10:22;100288.00;;;10.00
75822;BMP180;64454;51.984;9.838;2023-04-16T02:12:51;100290.00;;;9.80
75822;BMP180;64454;51.984;9.838;2023-04-16T02:15:18;100288.00;;;9.80
75822;BMP180;64454;51.984;9.838;2023-04-16T02:17:45;100288.00;;;9.70
75822;BMP180;64454;51.984;9.838;2023-04-16T02:20:13;100289.00;;;9.80
75822;BMP180;64454;51.984;9.838;2023-04-16T02:22:40;100293.00;;;9.80
75822;BMP180;64454;51.984;9.838;2023-04-16T02:25:08;100295.00;;;9.80
75822;BMP180;64454;51.984;9.838;2023-04-16T02:27:35;100300.00;;;9.70
75822;BMP180;64454;51.984;9.838;2023-04-16T02:30:04;100302.00;;;9.80
75822;BMP180;64454;51.984;9.838;2023-04-16T02:32:31;100302.00;;;9.80
75822;BMP180;64454;51.984;9.838;2023-04-16T02:34:58;100298.00;;;9.70
75822;BMP180;64454;51.984;9.838;2023-04-16T02:37:25;100301.00;;;9.80
75822;BMP180;64454;51.984;9.838;2023-04-16T02:39:52;100301.00;;;9.60
75822;BMP180;64454;51.984;9.838;2023-04-16T02:42:19;100301.00;;;9.60
75822;BMP180;64454;51.984;9.838;2023-04-16T02:44:45;100295.00;;;9.60
75822;BMP180;64454;51.984;9.838;2023-04-16T02:47:14;100306.00;;;9.40
75822;BMP180;64454;51.984;9.838;2023-04-16T02:49:40;100306.00;;;9.40
75822;BMP180;64454;51.984;9.838;2023-04-16T02:52:07;100301.00;;;9.60
75822;BMP180;64454;51.984;9.838;2023-04-16T02:54:34;100319.00;;;9.80
75822;BMP180;64454;51.984;9.838;2023-04-16T02:57:01;100313.00;;;9.80
75822;BMP180;64454;51.984;9.838;2023-04-16T02:59:28;100312.00;;;9.60
75822;BMP180;64454;51.984;9.838;2023-04-16T03:01:54;100311.00;;;9.70
75822;BMP180;64454;51.984;9.838;2023-04-16T03:04:23;100323.00;;;9.60
75822;BMP180;64454;51.984;9.838;2023-04-16T03:06:49;100321.00;;;9.50
75822;BMP180;64454;51.984;9.838;2023-04-16T03:09:18;100317.00;;;9.70
75822;BMP180;64454;51.984;9.838;2023-04-16T03:11:46;100332.00;;;9.50
75822;BMP180;64454;51.984;9.838;2023-04-16T03:14:13;100320.00;;;9.60
75822;BMP180;64454;51.984;9.838;2023-04-16T03:16:41;100335.00;;;9.50
75822;BMP180;64454;51.984;9.838;2023-04-16T03:19:08;100341.00;;;9.50
75822;BMP180;64454;51.984;9.838;2023-04-16T03:21:37;100342.00;;;9.50
75822;BMP180;64454;51.984;9.838;2023-04-16T03:24:04;100341.00;;;9.50
75822;BMP180;64454;51.984;9.838;2023-04-16T03:26:30;100346.00;;;9.50
75822;BMP180;64454;51.984;9.838;2023-04-16T03:28:57;100338.00;;;9.50
75822;BMP180;64454;51.984;9.838;2023-04-16T03:31:24;100342.00;;;9.50
75822;BMP180;64454;51.984;9.838;2023-04-16T03:33:51;100355.00;;;9.50
75822;BMP180;64454;51.984;9.838;2023-04-16T03:36:18;100343.00;;;9.40
75822;BMP180;64454;51.984;9.838;2023-04-16T03:38:46;100349.00;;;9.50
75822;BMP180;64454;51.984;9.838;2023-04-16T03:41:13;100355.00;;;9.20
75822;BMP180;64454;51.984;9.838;2023-04-16T03:43:40;100350.00;;;9.30
75822;BMP180;64454;51.984;9.838;2023-04-16T03:46:07;100347.00;;;9.30
75822;BMP180;64454;51.984;9.838;2023-04-16T03:48:34;100355.00;;;9.30
75822;BMP180;64454;51.984;9.838;2023-04-16T03:51:01;100358.00;;;9.40
75822;BMP180;64454;51.984;9.838;2023-04-16T03:53:27;100360.00;;;9.50
75822;BMP180;64454;51.984;9.838;2023-04-16T03:55:56;100362.00;;;9.60
75822;BMP180;64454;51.984;9.838;2023-04-16T03:58:23;100363.00;;;9.10
75822;BMP180;64454;51.984;9.838;2023-04-16T04:00:52;100359.00;;;9.40
75822;BMP180;64454;51.984;9.838;2023-04-16T04:03:19;100359.00;;;9.20
75822;BMP180;64454;51.984;9.838;2023-04-16T04:05:46;100355.00;;;9.30
75822;BMP180;64454;51.984;9.838;2023-04-16T04:08:13;100361.00;;;9.20
75822;BMP180;64454;51.984;9.838;2023-04-16T04:10:40;100370.00;;;9.20
75822;BMP180;64454;51.984;9.838;2023-04-16T04:13:08;100355.00;;;9.40
75822;BMP180;64454;51.984;9.838;2023-04-16T04:15:35;100359.00;;;9.50
75822;BMP180;64454;51.984;9.838;2023-04-16T04:18:02;100377.00;;;9.40
75822;BMP180;64454;51.984;9.838;2023-04-16T04:20:29;100362.00;;;9.30
75822;BMP180;64454;51.984;9.838;2023-04-16T04:22:56;100373.00;;;9.40
75822;BMP180;64454;51.984;9.838;2023-04-16T04:25:23;100377.00;;;9.40
75822;BMP180;64454;51.984;9.838;2023-04-16T04:27:50;100365.00;;;9.40
75822;BMP180;64454;51.984;9.838;2023-04-16T04:30:18;100375.00;;;9.40
75822;BMP180;64454;51.984;9.838;2023-04-16T04:32:45;100371.00;;;9.30
75822;BMP180;64454;51.984;9.838;2023-04-16T04:35:12;100376.00;;;9.10
75822;BMP180;64454;51.984;9.838;2023-04-16T04:37:39;100384.00;;;9.10
75822;BMP180;64454;51.984;9.838;2023-04-16T04:40:07;100382.00;;;8.90
75822;BMP180;64454;51.984;9.838;2023-04-16T04:42:36;100382.00;;;9.00
75822;BMP180;64454;51.984;9.838;2023-04-16T04:45:04;100383.00;;;9.00
75822;BMP180;64454;51.984;9.838;2023-04-16T04:47:33;100381.00;;;8.80
75822;BMP180;64454;51.984;9.838;2023-04-16T04:49:59;100386.00;;;8.60
75822;BMP180;64454;51.984;9.838;2023-04-16T04:52:26;100382.00;;;8.70
75822;BMP180;64454;51.984;9.838;2023-04-16T04:54:53;100388.00;;;9.10
75822;BMP180;64454;51.984;9.838;2023-04-16T04:57:20;100390.00;;;9.20
75822;BMP180;64454;51.984;9.838;2023-04-16T04:59:47;100394.00;;;9.10
75822;BMP180;64454;51.984;9.838;2023-04-16T05:02:14;100401.00;;;8.90
75822;BMP180;64454;51.984;9.838;2023-04-16T05:04:42;100408.00;;;8.80
75822;BMP180;64454;51.984;9.838;2023-04-16T05:07:09;100399.00;;;8.90
75822;BMP180;64454;51.984;9.838;2023-04-16T05:09:36;100412.00;;;8.80
75822;BMP180;64454;51.984;9.838;2023-04-16T05:12:03;100412.00;;;8.90
75822;BMP180;64454;51.984;9.838;2023-04-16T05:14:30;100419.00;;;8.90
75822;BMP180;64454;51.984;9.838;2023-04-16T05:16:57;100425.00;;;8.90
75822;BMP180;64454;51.984;9.838;2023-04-16T05:19:23;100424.00;;;9.10
75822;BMP180;64454;51.984;9.838;2023-04-16T05:21:52;100430.00;;;8.90
75822;BMP180;64454;51.984;9.838;2023-04-16T05:24:21;100429.00;;;8.70
75822;BMP180;64454;51.984;9.838;2023-04-16T05:26:48;100436.00;;;8.90
75822;BMP180;64454;51.984;9.838;2023-04-16T05:29:16;100433.00;;;9.00
75822;BMP180;64454;51.984;9.838;2023-04-16T05:31:44;100431.00;;;9.10
75822;BMP180;64454;51.984;9.838;2023-04-16T05:34:11;100440.00;;;9.00
75822;BMP180;64454;51.984;9.838;2023-04-16T05:36:38;100440.00;;;8.80
75822;BMP180;64454;51.984;9.838;2023-04-16T05:39:06;100445.00;;;8.90
75822;BMP180;64454;51.984;9.838;2023-04-16T05:41:33;100444.00;;;8.80
75822;BMP180;64454;51.984;9.838;2023-04-16T05:44:00;100447.00;;;8.50
75822;BMP180;64454;51.984;9.838;2023-04-16T05:46:27;100448.00;;;8.70
75822;BMP180;64454;51.984;9.838;2023-04-16T05:48:54;100452.00;;;8.80
75822;BMP180;64454;51.984;9.838;2023-04-16T05:51:21;100458.00;;;8.70
75822;BMP180;64454;51.984;9.838;2023-04-16T05:53:50;100465.00;;;8.70
75822;BMP180;64454;51.984;9.838;2023-04-16T05:56:18;100461.00;;;8.80
75822;BMP180;64454;51.984;9.838;2023-04-16T05:58:45;100465.00;;;8.70
75822;BMP180;64454;51.984;9.838;2023-04-16T06:01:12;100456.00;;;8.80
75822;BMP180;64454;51.984;9.838;2023-04-16T06:03:39;100466.00;;;8.80
75822;BMP180;64454;51.984;9.838;2023-04-16T06:06:06;100469.00;;;8.70
75822;BMP180;64454;51.984;9.838;2023-04-16T06:08:36;100468.00;;;8.80
75822;BMP180;64454;51.984;9.838;2023-04-16T06:11:03;100465.00;;;8.80
75822;BMP180;64454;51.984;9.838;2023-04-16T06:13:31;100474.00;;;8.80
75822;BMP180;64454;51.984;9.838;2023-04-16T06:15:58;100464.00;;;8.60
75822;BMP180;64454;51.984;9.838;2023-04-16T06:18:25;100475.00;;;8.70
75822;BMP180;64454;51.984;9.838;2023-04-16T06:20:52;100474.00;;;8.90
75822;BMP180;64454;51.984;9.838;2023-04-16T06:23:18;100478.00;;;8.90
75822;BMP180;64454;51.984;9.838;2023-04-16T06:25:45;100471.00;;;8.90
75822;BMP180;64454;51.984;9.838;2023-04-16T06:28:12;100470.00;;;8.80
75822;BMP180;64454;51.984;9.838;2023-04-16T06:30:40;100474.00;;;8.90
75822;BMP180;64454;51.984;9.838;2023-04-16T06:33:07;100479.00;;;8.70
75822;BMP180;64454;51.984;9.838;2023-04-16T06:35:35;100482.00;;;8.90
75822;BMP180;64454;51.984;9.838;2023-04-16T06:38:01;100492.00;;;8.90
75822;BMP180;64454;51.984;9.838;2023-04-16T06:40:28;100490.00;;;8.90
75822;BMP180;64454;51.984;9.838;2023-04-16T06:42:55;100487.00;;;9.00
75822;BMP180;64454;51.984;9.838;2023-04-16T06:45:22;100492.00;;;8.90
75822;BMP180;64454;51.984;9.838;2023-04-16T06:47:50;100502.00;;;8.80
75822;BMP180;64454;51.984;9.838;2023-04-16T06:50:17;100495.00;;;8.90
75822;BMP180;64454;51.984;9.838;2023-04-16T06:52:44;100506.00;;;8.80
75822;BMP180;64454;51.984;9.838;2023-04-16T06:55:11;100499.00;;;8.70
75822;BMP180;64454;51.984;9.838;2023-04-16T06:57:38;100503.00;;;8.80
75822;BMP180;64454;51.984;9.838;2023-04-16T07:00:07;100506.00;;;8.90
75822;BMP180;64454;51.984;9.838;2023-04-16T07:02:34;100507.00;;;8.80
75822;BMP180;64454;51.984;9.838;2023-04-16T07:05:02;100507.00;;;8.90
75822;BMP180;64454;51.984;9.838;2023-04-16T07:07:29;100518.00;;;9.10
75822;BMP180;64454;51.984;9.838;2023-04-16T07:09:57;100510.00;;;9.00
75822;BMP180;64454;51.984;9.838;2023-04-16T07:12:24;100509.00;;;9.00
75822;BMP180;64454;51.984;9.838;2023-04-16T07:14:51;100507.00;;;9.20
75822;BMP180;64454;51.984;9.838;2023-04-16T07:17:18;100514.00;;;9.10
75822;BMP180;64454;51.984;9.838;2023-04-16T07:19:45;100516.00;;;9.00
75822;BMP180;64454;51.984;9.838;2023-04-16T07:22:13;100507.00;;;9.00
75822;BMP180;64454;51.984;9.838;2023-04-16T07:24:41;100518.00;;;9.20
75822;BMP180;64454;51.984;9.838;2023-04-16T07:27:08;100515.00;;;8.90
75822;BMP180;64454;51.984;9.838;2023-04-16T07:29:34;100521.00;;;8.90
75822;BMP180;64454;51.984;9.838;2023-04-16T07:32:01;100529.00;;;9.10
75822;BMP180;64454;51.984;9.838;2023-04-16T07:34:28;100526.00;;;9.10
75822;BMP180;64454;51.984;9.838;2023-04-16T07:36:55;100532.00;;;9.20
75822;BMP180;64454;51.984;9.838;2023-04-16T07:39:23;100531.00;;;9.10
75822;BMP180;64454;51.984;9.838;2023-04-16T07:41:50;100532.00;;;9.00
75822;BMP180;64454;51.984;9.838;2023-04-16T07:44:19;100536.00;;;9.20
75822;BMP180;64454;51.984;9.838;2023-04-16T07:46:46;100539.00;;;9.30
75822;BMP180;64454;51.984;9.838;2023-04-16T07:49:14;100544.00;;;9.30
75822;BMP180;64454;51.984;9.838;2023-04-16T07:51:42;100543.00;;;9.10
75822;BMP180;64454;51.984;9.838;2023-04-16T07:54:09;100545.00;;;9.20
75822;BMP180;64454;51.984;9.838;2023-04-16T07:56:37;100548.00;;;9.40
75822;BMP180;64454;51.984;9.838;2023-04-16T07:59:04;100556.00;;;9.40
75822;BMP180;64454;51.984;9.838;2023-04-16T08:01:31;100560.00;;;9.20
75822;BMP180;64454;51.984;9.838;2023-04-16T08:03:58;100550.00;;;9.10
75822;BMP180;64454;51.984;9.838;2023-04-16T08:06:25;100550.00;;;9.30
75822;BMP180;64454;51.984;9.838;2023-04-16T08:08:52;100552.00;;;9.20
75822;BMP180;64454;51.984;9.838;2023-04-16T08:11:19;100550.00;;;9.20
75822;BMP180;64454;51.984;9.838;2023-04-16T08:13:47;100555.00;;;9.20
75822;BMP180;64454;51.984;9.838;2023-04-16T08:16:14;100553.00;;;9.20
75822;BMP180;64454;51.984;9.838;2023-04-16T08:18:41;100559.00;;;9.30
75822;BMP180;64454;51.984;9.838;2023-04-16T08:21:08;100571.00;;;9.30
75822;BMP180;64454;51.984;9.838;2023-04-16T08:23:35;100562.00;;;9.30
75822;BMP180;64454;51.984;9.838;2023-04-16T08:26:02;100563.00;;;9.30
75822;BMP180;64454;51.984;9.838;2023-04-16T08:28:29;100577.00;;;9.40
75822;BMP180;64454;51.984;9.838;2023-04-16T08:30:57;100567.00;;;9.40
75822;BMP180;64454;51.984;9.838;2023-04-16T08:33:24;100582.00;;;9.40
75822;BMP180;64454;51.984;9.838;2023-04-16T08:35:51;100578.00;;;9.40
75822;BMP180;64454;51.984;9.838;2023-04-16T08:38:18;100597.00;;;9.60
75822;BMP180;64454;51.984;9.838;2023-04-16T08:40:46;100592.00;;;9.70
75822;BMP180;64454;51.984;9.838;2023-04-16T08:43:16;100592.00;;;9.50
75822;BMP180;64454;51.984;9.838;2023-04-16T08:45:46;100603.00;;;9.50
75822;BMP180;64454;51.984;9.838;2023-04-16T08:48:15;100605.00;;;9.40
75822;BMP180;64454;51.984;9.838;2023-04-16T08:50:48;100607.00;;;9.60
75822;BMP180;64454;51.984;9.838;2023-04-16T08:53:21;100611.00;;;9.50
75822;BMP180;64454;51.984;9.838;2023-04-16T08:55:58;100612.00;;;9.20
75822;BMP180;64454;51.984;9.838;2023-04-16T08:58:30;100603.00;;;9.40
75822;BMP180;64454;51.984;9.838;2023-04-16T09:01:01;100614.00;;;9.50
75822;BMP180;64454;51.984;9.838;2023-04-16T09:03:31;100606.00;;;9.70
75822;BMP180;64454;51.984;9.838;2023-04-16T09:05:58;100616.00;;;9.60
75822;BMP180;64454;51.984;9.838;2023-04-16T09:08:26;100612.00;;;9.80
75822;BMP180;64454;51.984;9.838;2023-04-16T09:10:55;100615.00;;;9.40
75822;BMP180;64454;51.984;9.838;2023-04-16T09:13:22;100620.00;;;9.70
75822;BMP180;64454;51.984;9.838;2023-04-16T09:15:51;100618.00;;;9.80
75822;BMP180;64454;51.984;9.838;2023-04-16T09:18:18;100622.00;;;9.80
75822;BMP180;64454;51.984;9.838;2023-04-16T09:20:48;100626.00;;;9.80
75822;BMP180;64454;51.984;9.838;2023-04-16T09:23:17;100631.00;;;9.80
75822;BMP180;64454;51.984;9.838;2023-04-16T09:25:44;100626.00;;;9.90
75822;BMP180;64454;51.984;9.838;2023-04-16T09:28:11;100637.00;;;9.90
75822;BMP180;64454;51.984;9.838;2023-04-16T09:30:37;100630.00;;;9.90
75822;BMP180;64454;51.984;9.838;2023-04-16T09:33:16;100630.00;;;10.10
75822;BMP180;64454;51.984;9.838;2023-04-16T09:35:50;100641.00;;;10.00
75822;BMP180;64454;51.984;9.838;2023-04-16T09:38:18;100642.00;;;10.00
75822;BMP180;64454;51.984;9.838;2023-04-16T09:40:45;100639.00;;;10.00
75822;BMP180;64454;51.984;9.838;2023-04-16T09:43:14;100639.00;;;10.00
75822;BMP180;64454;51.984;9.838;2023-04-16T09:45:48;100645.00;;;9.90
75822;BMP180;64454;51.984;9.838;2023-04-16T09:48:27;100647.00;;;9.80
75822;BMP180;64454;51.984;9.838;2023-04-16T09:50:56;100645.00;;;9.80
75822;BMP180;64454;51.984;9.838;2023-04-16T09:53:24;100651.00;;;9.80
75822;BMP180;64454;51.984;9.838;2023-04-16T09:55:51;100655.00;;;9.90
75822;BMP180;64454;51.984;9.838;2023-04-16T09:58:18;100650.00;;;9.80
75822;BMP180;64454;51.984;9.838;2023-04-16T10:00:45;100649.00;;;9.80
75822;BMP180;64454;51.984;9.838;2023-04-16T10:03:12;100655.00;;;10.00
75822;BMP180;64454;51.984;9.838;2023-04-16T10:05:40;100657.00;;;10.00
75822;BMP180;64454;51.984;9.838;2023-04-16T10:08:15;100656.00;;;9.80
75822;BMP180;64454;51.984;9.838;2023-04-16T10:10:43;100653.00;;;10.00
75822;BMP180;64454;51.984;9.838;2023-04-16T10:13:10;100658.00;;;10.00
75822;BMP180;64454;51.984;9.838;2023-04-16T10:15:42;100659.00;;;9.80
75822;BMP180;64454;51.984;9.838;2023-04-16T10:18:09;100659.00;;;10.00
75822;BMP180;64454;51.984;9.838;2023-04-16T10:20:36;100661.00;;;9.90
75822;BMP180;64454;51.984;9.838;2023-04-16T10:23:04;100663.00;;;10.20
75822;BMP180;64454;51.984;9.838;2023-04-16T10:25:33;100673.00;;;10.10
75822;BMP180;64454;51.984;9.838;2023-04-16T10:28:00;100670.00;;;9.90
75822;BMP180;64454;51.984;9.838;2023-04-16T10:30:28;100669.00;;;10.10
75822;BMP180;64454;51.984;9.838;2023-04-16T10:32:55;100674.00;;;10.10
75822;BMP180;64454;51.984;9.838;2023-04-16T10:35:24;100677.00;;;9.90
75822;BMP180;64454;51.984;9.838;2023-04-16T10:37:55;100678.00;;;9.80
75822;BMP180;64454;51.984;9.838;2023-04-16T10:40:24;100681.00;;;9.80
75822;BMP180;64454;51.984;9.838;2023-04-16T10:42:57;100693.00;;;10.00
75822;BMP180;64454;51.984;9.838;2023-04-16T10:45:30;100693.00;;;9.90
75822;BMP180;64454;51.984;9.838;2023-04-16T10:47:58;100686.00;;;10.10
75822;BMP180;64454;51.984;9.838;2023-04-16T10:50:34;100685.00;;;10.30
75822;BMP180;64454;51.984;9.838;2023-04-16T10:53:22;100691.00;;;9.80
75822;BMP180;64454;51.984;9.838;2023-04-16T10:56:09;100692.00;;;9.80
75822;BMP180;64454;51.984;9.838;2023-04-16T10:58:39;100692.00;;;9.80
75822;BMP180;64454;51.984;9.838;2023-04-16T11:01:10;100694.00;;;9.90
75822;BMP180;64454;51.984;9.838;2023-04-16T11:03:42;100697.00;;;9.90
75822;BMP180;64454;51.984;9.838;2023-04-16T11:06:11;100692.00;;;9.90
75822;BMP180;64454;51.984;9.838;2023-04-16T11:08:39;100694.00;;;10.00
75822;BMP180;64454;51.984;9.838;2023-04-16T11:11:08;100696.00;;;9.90
75822;BMP180;64454;51.984;9.838;2023-04-16T11:13:36;100694.00;;;10.00
75822;BMP180;64454;51.984;9.838;2023-04-16T11:16:05;100700.00;;;10.00
75822;BMP180;64454;51.984;9.838;2023-04-16T11:18:31;100703.00;;;10.10
75822;BMP180;64454;51.984;9.838;2023-04-16T11:20:59;100695.00;;;10.00
75822;BMP180;64454;51.984;9.838;2023-04-16T11:23:26;100704.00;;;10.10
75822;BMP180;64454;51.984;9.838;2023-04-16T11:25:53;100699.00;;;10.10
75822;BMP180;64454;51.984;9.838;2023-04-16T11:28:32;100707.00;;;10.20
75822;BMP180;64454;51.984;9.838;2023-04-16T11:31:10;100708.00;;;10.00
75822;BMP180;64454;51.984;9.838;2023-04-16T11:33:38;100704.00;;;10.00
75822;BMP180;64454;51.984;9.838;2023-04-16T11:36:05;100716.00;;;10.10
75822;BMP180;64454;51.984;9.838;2023-04-16T11:38:33;100715.00;;;10.00
75822;BMP180;64454;51.984;9.838;2023-04-16T11:41:01;100716.00;;;9.90
75822;BMP180;64454;51.984;9.838;2023-04-16T11:43:28;100715.00;;;9.80
75822;BMP180;64454;51.984;9.838;2023-04-16T11:46:00;100717.00;;;10.00
75822;BMP180;64454;51.984;9.838;2023-04-16T11:48:48;100720.00;;;10.00
75822;BMP180;64454;51.984;9.838;2023-04-16T11:51:16;100724.00;;;10.00
75822;BMP180;64454;51.984;9.838;2023-04-16T11:53:48;100725.00;;;9.80
75822;BMP180;64454;51.984;9.838;2023-04-16T11:56:16;100727.00;;;9.90
75822;BMP180;64454;51.984;9.838;2023-04-16T11:59:06;100720.00;;;9.90
75822;BMP180;64454;51.984;9.838;2023-04-16T12:01:35;100723.00;;;10.20
75822;BMP180;64454;51.984;9.838;2023-04-16T12:04:03;100732.00;;;10.10
75822;BMP180;64454;51.984;9.838;2023-04-16T12:06:31;100730.00;;;10.20
75822;BMP180;64454;51.984;9.838;2023-04-16T12:08:58;100733.00;;;10.10
75822;BMP180;64454;51.984;9.838;2023-04-16T12:11:38;100737.00;;;10.20
75822;BMP180;64454;51.984;9.838;2023-04-16T12:14:09;100734.00;;;10.20
75822;BMP180;64454;51.984;9.838;2023-04-16T12:16:37;100735.00;;;10.20
75822;BMP180;64454;51.984;9.838;2023-04-16T12:19:09;100738.00;;;10.20
75822;BMP180;64454;51.984;9.838;2023-04-16T12:21:38;100734.00;;;10.20
75822;BMP180;64454;51.984;9.838;2023-04-16T12:24:08;100733.00;;;10.10
75822;BMP180;64454;51.984;9.838;2023-04-16T12:26:41;100728.00;;;10.20
75822;BMP180;64454;51.984;9.838;2023-04-16T12:29:17;100736.00;;;10.10
75822;BMP180;64454;51.984;9.838;2023-04-16T12:31:47;100736.00;;;10.30
75822;BMP180;64454;51.984;9.838;2023-04-16T12:34:18;100733.00;;;10.30
75822;BMP180;64454;51.984;9.838;2023-04-16T12:36:48;100732.00;;;10.30
75822;BMP180;64454;51.984;9.838;2023-04-16T12:39:18;100735.00;;;10.30
75822;BMP180;64454;51.984;9.838;2023-04-16T12:41:47;100733.00;;;10.60
75822;BMP180;64454;51.984;9.838;2023-04-16T12:44:17;100740.00;;;10.40
75822;BMP180;64454;51.984;9.838;2023-04-16T12:46:45;100737.00;;;10.60
75822;BMP180;64454;51.984;9.838;2023-04-16T12:49:12;100737.00;;;10.60
75822;BMP180;64454;51.984;9.838;2023-04-16T12:51:40;100738.00;;;10.90
75822;BMP180;64454;51.984;9.838;2023-04-16T12:54:07;100738.00;;;10.70
75822;BMP180;64454;51.984;9.838;2023-04-16T12:56:34;100731.00;;;10.50
75822;BMP180;64454;51.984;9.838;2023-04-16T12:59:01;100742.00;;;10.50
75822;BMP180;64454;51.984;9.838;2023-04-16T13:01:28;100741.00;;;10.40
75822;BMP180;64454;51.984;9.838;2023-04-16T13:03:55;100743.00;;;10.40
75822;BMP180;64454;51.984;9.838;2023-04-16T13:06:22;100742.00;;;10.50
75822;BMP180;64454;51.984;9.838;2023-04-16T13:08:50;100747.00;;;10.50
75822;BMP180;64454;51.984;9.838;2023-04-16T13:11:17;100745.00;;;10.30
75822;BMP180;64454;51.984;9.838;2023-04-16T13:13:44;100748.00;;;10.50
75822;BMP180;64454;51.984;9.838;2023-04-16T13:16:11;100753.00;;;10.30
75822;BMP180;64454;51.984;9.838;2023-04-16T13:18:39;100755.00;;;10.40
75822;BMP180;64454;51.984;9.838;2023-04-16T13:21:06;100757.00;;;10.70
75822;BMP180;64454;51.984;9.838;2023-04-16T13:23:34;100753.00;;;10.40
75822;BMP180;64454;51.984;9.838;2023-04-16T13:26:02;100741.00;;;10.70
75822;BMP180;64454;51.984;9.838;2023-04-16T13:28:29;100751.00;;;10.60
75822;BMP180;64454;51.984;9.838;2023-04-16T13:30:56;100751.00;;;10.70
75822;BMP180;64454;51.984;9.838;2023-04-16T13:33:23;100753.00;;;10.60
75822;BMP180;64454;51.984;9.838;2023-04-16T13:35:50;100753.00;;;10.60
75822;BMP180;64454;51.984;9.838;2023-04-16T13:38:17;100745.00;;;10.60
75822;BMP180;64454;51.984;9.838;2023-04-16T13:40:44;100748.00;;;10.50
75822;BMP180;64454;51.984;9.838;2023-04-16T13:43:12;100749.00;;;10.90
75822;BMP180;64454;51.984;9.838;2023-04-16T13:45:41;100747.00;;;10.80
75822;BMP180;64454;51.984;9.838;2023-04-16T13:48:08;100744.00;;;10.60
75822;BMP180;64454;51.984;9.838;2023-04-16T13:50:35;100749.00;;;10.80
75822;BMP180;64454;51.984;9.838;2023-04-16T13:53:02;100741.00;;;11.00
75822;BMP180;64454;51.984;9.838;2023-04-16T13:55:30;100750.00;;;10.80
75822;BMP180;64454;51.984;9.838;2023-04-16T13:57:57;100747.00;;;10.80
75822;BMP180;64454;51.984;9.838;2023-04-16T14:00:26;100749.00;;;10.90
75822;BMP180;64454;51.984;9.838;2023-04-16T14:02:53;100747.00;;;10.90
75822;BMP180;64454;51.984;9.838;2023-04-16T14:05:20;100747.00;;;10.70
75822;BMP180;64454;51.984;9.838;2023-04-16T14:07:48;100743.00;;;11.00